Flight Track Log - Related Links

Times and Time Zones

All times are in EDT time to prevent confusion due to time zone crossing. See the SWA2279 flight status page for this flight to view local times or setup timezone preferences in your user account.

Time Position Orientation Groundspeed Altitude Reporting Facility
EDT Latitude Longitude Course Direction KTS MPH feet Rate Location/Type
Sat 05:54:28 PM 39.1514 -76.7667 108° East 182 209 3,500  Level Washington Center
Sat 05:55:30 PM 39.1103 -76.7069 132° Southeast 123 142 5,500 2,607 Climbing Washington Center
Sat 05:56:30 PM 39.1239 -76.6031 80° East 137 158 8,800 3,356 Climbing Washington Center
Sat 05:57:28 PM 39.1308 -76.4906 85° East 218 251 12,100 2,949 Climbing Washington Center
Sat 05:58:28 PM 39.1400 -76.3703 84° East 274 315 14,600 2,876 Climbing Washington Center
Sat 05:59:00 PM 39.1643 -76.5906 108° East  Level FlightAware Approximate
Sat 05:59:29 PM 39.1472 -76.2419 86° East 316 364 17,900  Level Washington Center
Sat 06:00:29 PM 39.1667 -76.1003 80° East 340 391 18,000 198 Climbing Washington Center
Sat 06:01:30 PM 39.1836 -75.9664 81° East 364 419 18,300 1,230 Climbing Washington Center
Sat 06:02:31 PM 39.2217 -75.8381 69° East 381 438 20,500 2,118 Climbing Washington Center
Sat 06:03:29 PM 39.3050 -75.7336 44° Northeast 382 440 22,500 2,168 Climbing Washington Center
Sat 06:04:30 PM 39.3906 -75.6211 45° Northeast 406 467 24,800 1,884 Climbing Washington Center
Sat 06:05:30 PM 39.4822 -75.5081 44° Northeast 430 495 26,300 1,729 Climbing Washington Center
Sat 06:06:28 PM 39.5739 -75.3869 46° Northeast 452 520 28,200 1,780 Climbing Washington Center
Sat 06:07:28 PM 39.6694 -75.2600 46° Northeast 467 537 29,800 1,686 Climbing Washington Center
Sat 06:08:29 PM 39.7625 -75.1219 49° Northeast 487 560 31,600 1,675 Climbing Washington Center
Sat 06:10:45 PM 39.9794 -74.8181 47° Northeast 516 594 35,300 1,553 Climbing New York Center
Sat 06:11:46 PM 40.0892 -74.7214 34° Northeast 496 571 36,700 843 Climbing New York Center
Sat 06:12:46 PM 40.2158 -74.6714 17° North 466 536 37,000 151 Climbing New York Center
Sat 06:13:45 PM 40.3444 -74.6269 15° North 472 543 37,000  Level New York Center
Sat 06:14:46 PM 40.4686 -74.5847 15° North 466 536 37,000  Level New York Center
Sat 06:16:41 PM 40.7039 -74.5069 14° North 475 547 37,000  Level Boston Center
Sat 06:17:41 PM 40.8275 -74.4672 14° North 475 547 37,000  Level Boston Center
Sat 06:18:41 PM 40.9553 -74.4244 14° North 469 540 37,000  Level Boston Center
Sat 06:19:42 PM 41.0811 -74.3869 13° North 463 533 37,000  Level Boston Center
Sat 06:20:40 PM 41.2111 -74.3411 15° North 468 539 37,000  Level Boston Center
Sat 06:21:41 PM 41.3494 -74.2928 15° North 468 539 37,000  Level Boston Center
Sat 06:22:41 PM 41.4753 -74.2467 15° North 468 539 37,000 -446 Level Boston Center
Sat 06:23:42 PM 41.5925 -74.2083 14° North 468 539 36,100 -942 Descending Boston Center
Sat 06:24:42 PM 41.7139 -74.1700 13° North 462 532 35,100 -992 Descending Boston Center
Sat 06:25:43 PM 41.8375 -74.1286 14° North 452 520 34,100 -966 Descending Boston Center
Sat 06:26:40 PM 41.9592 -74.0844 15° North 447 514 33,200 -974 Descending Boston Center
Sat 06:27:40 PM 42.0847 -74.0431 14° North 452 520 32,200 -1,091 Descending Boston Center
Sat 06:28:41 PM 42.2042 -73.9956 16° North 452 520 31,000 -2,066 Descending Boston Center
Sat 06:29:42 PM 42.3161 -73.8944 34° Northeast 452 520 28,000 -2,876 Descending Boston Center
Sat 06:30:42 PM 42.4236 -73.7986 33° Northeast 460 529 25,200 -2,034 Descending Boston Center
Sat 06:31:40 PM 42.4878 -73.6508 59° Northeast 448 516 24,000 -1,169 Descending Boston Center
Sat 06:32:40 PM 42.5289 -73.4853 71° East 412 474 22,900 -1,041 Descending Boston Center
Sat 06:33:41 PM 42.5594 -73.3308 75° East 486 559 21,900 -984 Descending Boston Center
Sat 06:34:42 PM 42.5958 -73.1819 72° East 452 520 20,900 -1,008 Descending Boston Center
Sat 06:35:40 PM 42.6322 -73.0297 72° East 410 472 19,900 -1,017 Descending Boston Center
Sat 06:36:40 PM 42.6622 -72.8833 74° East 404 465 18,900 -992 Descending Boston Center
Sat 06:37:41 PM 42.6856 -72.7394 78° East 392 451 17,900 -1,100 Descending Boston Center
Sat 06:38:40 PM 42.7108 -72.5956 77° East 387 445 16,700 -1,462 Descending Boston Center
Sat 06:39:40 PM 42.7339 -72.4600 77° East 382 440 15,000 -1,636 Descending Boston Center
Sat 06:40:41 PM 42.7567 -72.3269 77° East 371 427 13,400 -1,587 Descending Boston Center
Sat 06:41:41 PM 42.7753 -72.2025 78° East 352 405 11,800 -1,488 Descending Boston Center
Sat 06:42:42 PM 42.7958 -72.0750 78° East 340 391 10,400 -1,361 Descending Boston Center
Sat 06:43:40 PM 42.8017 -71.9561 86° East 321 369 9,100 -1,373 Descending Boston Center
Sat 06:44:40 PM 42.8072 -71.8403 86° East 311 358 7,700 -1,388 Descending Boston Center
Sat 06:45:41 PM 42.8108 -71.7297 87° East 298 343 6,300 -1,537 Descending Boston Center
Sat 06:46:41 PM 42.8183 -71.6192 85° East 285 328 4,600 -1,650 Descending Boston Center
Sat 06:47:41 PM 42.8239 -71.5172 86° East 285 328 3,000 -1,041 Descending Boston Center
Sat 06:48:42 PM 42.8294 -71.4239 85° East 265 305 2,500 -555 Descending Boston Center
Sat 06:49:40 PM 42.8583 -71.3892 41° Northeast 149 171 1,900 -833 Descending Boston Center
Sat 06:50:30 PM 42.8833 -71.4000 342° North 132 152 1,000 2,354 Descending KA90
Sat 06:52:41 PM 42.9544 -71.4386 338° Northwest 113 130 9,000 2,500 Climbing Boston Center
Sat 06:53:42 PM 42.9858 -71.4525 342° North 113 130 9,000  Level Boston Center
Sat 06:54:42 PM 43.0172 -71.4661 342° North 113 130 9,000  Level Boston Center
Sat 06:55:40 PM 43.0486 -71.4797 342° North 113 130 9,000  Level Boston Center
Sat 06:57:00 PM 42.9328 -71.4358 168° South  Level Estimated
Sat 07:04:00 PM 42.9328 -71.4358 168° South  Level Estimated
Sat 07:05:00 PM 42.9328 -71.4358 168° South  Level Estimated
Sat 07:06:00 PM 42.9328 -71.4358 168° South  Level Estimated
Sat 07:07:00 PM 42.9328 -71.4358 168° South  Level Estimated
Sat 07:08:00 PM 42.9328 -71.4358 168° South  Level Estimated

Login

Don't have an account? Register now (free) for customized features, flight alerts, and more!